Time;durP1;ratioP1;P1;durP2;ratioP2;P2;SDS_P1;SDS_P2;PMS_P1;PMS_P2;Temp;Humidity;BMP_temperature;BMP_pressure;BME280_temperature;BME280_humidity;BME280_pressure;Samples;Min_cycle;Max_cycle;Signal;HPM_P1;HPM_P2
2022/10/29 00:05:37;;;;;;;5.97;1.42;;;13.70;99.90;;;;;;20831301;28;20040;-39
2022/10/29 00:15:41;;;;;;;3.63;1.85;;;13.70;99.90;;;;;;20829852;28;20052;-39
2022/10/29 00:25:42;;;;;;;5.40;2.17;;;13.70;99.90;;;;;;20824680;28;20511;-39
2022/10/29 00:36:16;;;;;;;3.40;1.52;;;13.70;99.90;;;;;;20828667;28;20119;-39
2022/10/29 00:46:25;;;;;;;7.32;2.15;;;13.70;99.90;;;;;;20825987;28;20102;-39
2022/10/29 00:56:30;;;;;;;5.70;2.55;;;13.70;99.90;;;;;;20827770;28;20723;-39
2022/10/29 01:06:32;;;;;;;5.93;2.08;;;13.70;99.90;;;;;;20827711;28;20049;-39
2022/10/29 01:16:48;;;;;;;3.00;1.88;;;13.60;99.90;;;;;;20805566;28;20823;-39
2022/10/29 01:27:08;;;;;;;6.28;2.60;;;13.60;99.90;;;;;;20807918;28;20152;-39
2022/10/29 01:37:23;;;;;;;4.00;1.40;;;13.60;99.90;;;;;;20808326;28;21143;-39
2022/10/29 01:47:29;;;;;;;7.68;3.33;;;13.50;99.90;;;;;;20812208;28;20079;-39
2022/10/29 01:57:36;;;;;;;6.25;3.08;;;13.50;99.90;;;;;;20816127;28;20722;-39
2022/10/29 02:07:50;;;;;;;5.63;3.20;;;13.50;99.90;;;;;;20815555;28;21699;-39
2022/10/29 02:17:51;;;;;;;4.95;2.50;;;13.50;99.90;;;;;;20812980;28;20405;-39
2022/10/29 02:27:52;;;;;;;7.15;3.25;;;13.40;99.90;;;;;;20817031;28;20094;-39
2022/10/29 02:37:53;;;;;;;4.25;1.88;;;13.20;99.90;;;;;;20834035;28;20104;-39
2022/10/29 02:47:54;;;;;;;3.75;2.15;;;13.00;99.90;;;;;;20820318;28;20801;-39
2022/10/29 02:57:55;;;;;;;6.00;2.60;;;13.00;99.90;;;;;;20837032;28;20132;-39
2022/10/29 03:07:56;;;;;;;5.20;2.72;;;12.80;99.90;;;;;;20829618;28;20400;-39
2022/10/29 03:17:57;;;;;;;9.32;2.50;;;12.80;99.90;;;;;;20831055;28;20520;-39
2022/10/29 03:27:58;;;;;;;7.10;2.10;;;12.60;99.90;;;;;;20829387;28;20053;-39
2022/10/29 03:37:59;;;;;;;5.25;2.40;;;12.60;99.90;;;;;;20832934;28;20049;-39
2022/10/29 03:48:03;;;;;;;5.28;2.20;;;12.70;99.90;;;;;;20810762;28;20049;-39
2022/10/29 03:58:04;;;;;;;5.03;2.53;;;12.70;99.90;;;;;;20828962;28;20045;-39
2022/10/29 04:08:05;;;;;;;7.82;2.75;;;12.80;99.90;;;;;;20830315;28;20048;-39
2022/10/29 04:18:07;;;;;;;4.97;3.40;;;12.90;99.90;;;;;;20824255;28;20045;-39
2022/10/29 04:28:08;;;;;;;4.18;2.00;;;13.00;99.90;;;;;;20819684;28;20080;-39
2022/10/29 04:38:10;;;;;;;3.53;1.95;;;13.10;99.90;;;;;;20816527;28;20543;-39
2022/10/29 04:48:11;;;;;;;3.53;1.95;;;13.20;99.90;;;;;;20821951;28;20058;-39
2022/10/29 04:58:15;;;;;;;6.15;2.00;;;13.20;99.90;;;;;;20816046;28;20095;-39
2022/10/29 05:08:16;;;;;;;4.88;2.30;;;13.20;99.90;;;;;;20822881;28;20067;-39
2022/10/29 05:18:17;;;;;;;4.60;2.67;;;13.20;99.90;;;;;;20817505;28;20501;-39
2022/10/29 05:28:21;;;;;;;3.80;2.20;;;13.20;99.90;;;;;;20819453;28;20733;-39
2022/10/29 05:38:22;;;;;;;4.63;1.90;;;13.20;99.90;;;;;;20815676;28;20451;-39
2022/10/29 05:48:23;;;;;;;7.65;2.50;;;13.20;99.90;;;;;;20814491;28;20420;-39
2022/10/29 05:58:24;;;;;;;4.88;1.92;;;13.20;99.90;;;;;;20807226;28;20485;-39
2022/10/29 06:08:25;;;;;;;2.08;1.20;;;13.20;99.90;;;;;;20824816;28;20772;-39
2022/10/29 06:18:26;;;;;;;5.22;2.25;;;13.20;99.90;;;;;;20817906;28;20374;-39
2022/10/29 06:28:28;;;;;;;3.00;1.83;;;13.20;99.90;;;;;;20820202;28;20090;-39
2022/10/29 06:38:29;;;;;;;4.32;2.63;;;13.20;99.90;;;;;;20824030;28;20102;-39
2022/10/29 06:48:30;;;;;;;6.93;2.63;;;13.30;99.90;;;;;;20810857;28;20512;-39
2022/10/29 06:58:31;;;;;;;8.15;2.95;;;13.50;99.90;;;;;;20811394;28;20504;-39
2022/10/29 07:08:32;;;;;;;4.32;2.33;;;13.60;99.90;;;;;;20838369;28;20044;-39
2022/10/29 07:18:33;;;;;;;4.82;2.50;;;13.60;99.90;;;;;;20831926;28;21834;-39
2022/10/29 07:28:34;;;;;;;6.07;3.42;;;13.70;99.90;;;;;;20820518;28;20698;-39
2022/10/29 07:38:35;;;;;;;8.30;4.22;;;13.80;99.90;;;;;;20821291;28;20111;-39
2022/10/29 07:48:36;;;;;;;8.95;5.05;;;14.00;99.90;;;;;;20824689;28;20055;-39
2022/10/29 07:58:37;;;;;;;15.30;6.70;;;14.40;99.90;;;;;;20812292;28;20136;-39
2022/10/29 08:08:38;;;;;;;8.15;5.07;;;14.80;99.90;;;;;;20834077;28;20049;-39
2022/10/29 08:18:39;;;;;;;10.95;5.68;;;15.10;99.90;;;;;;20832797;28;20428;-39
2022/10/29 08:28:41;;;;;;;7.40;4.05;;;15.50;99.90;;;;;;20833965;28;20065;-39
2022/10/29 08:38:42;;;;;;;7.53;4.47;;;15.70;99.90;;;;;;20825945;28;20046;-39
2022/10/29 08:48:52;;;;;;;7.43;4.72;;;15.90;99.90;;;;;;20826287;28;20053;-39
2022/10/29 08:58:58;;;;;;;11.27;4.75;;;16.10;99.90;;;;;;20824126;28;20041;-39
2022/10/29 09:09:09;;;;;;;11.90;5.68;;;16.30;99.90;;;;;;20822103;28;20453;-39
2022/10/29 09:19:19;;;;;;;6.60;3.70;;;16.40;99.90;;;;;;20827470;28;20707;-39
2022/10/29 09:29:26;;;;;;;10.27;4.47;;;16.60;99.90;;;;;;20827525;28;20058;-39
2022/10/29 09:39:39;;;;;;;7.00;3.90;;;16.70;99.90;;;;;;20822620;28;20925;-39
2022/10/29 09:49:43;;;;;;;5.00;2.72;;;16.80;99.90;;;;;;20819894;28;20787;-39
2022/10/29 09:59:49;;;;;;;6.28;3.17;;;16.90;99.90;;;;;;20816814;28;20106;-39
2022/10/29 10:10:03;;;;;;;6.47;3.13;;;16.90;99.90;;;;;;20820585;28;20063;-39
2022/10/29 10:20:29;;;;;;;8.15;3.80;;;17.30;99.90;;;;;;20807745;28;20037;-39
2022/10/29 10:30:30;;;;;;;11.27;4.13;;;17.80;99.90;;;;;;20806180;28;20954;-39
2022/10/29 10:40:31;;;;;;;4.57;2.50;;;18.20;99.90;;;;;;20810676;28;20053;-39
2022/10/29 10:50:33;;;;;;;6.10;3.53;;;18.40;99.90;;;;;;20809534;28;20060;-39
2022/10/29 11:00:53;;;;;;;8.50;2.25;;;18.90;99.90;;;;;;20808813;28;20958;-39
2022/10/29 11:11:03;;;;;;;4.35;1.75;;;20.10;99.90;;;;;;20828397;28;20092;-39
2022/10/29 11:21:15;;;;;;;5.43;2.22;;;20.80;99.90;;;;;;20826769;28;20098;-39
2022/10/29 11:31:39;;;;;;;3.03;1.70;;;20.10;99.90;;;;;;20834423;28;20053;-39
2022/10/29 11:42:05;;;;;;;3.70;2.28;;;19.70;99.90;;;;;;20827611;28;20871;-39
2022/10/29 11:52:18;;;;;;;3.40;1.77;;;19.60;99.90;;;;;;20833484;28;20488;-39
2022/10/29 12:02:46;;;;;;;3.25;1.60;;;19.70;99.90;;;;;;20820598;28;20049;-39
2022/10/29 12:13:08;;;;;;;6.40;2.72;;;19.90;99.90;;;;;;20818005;28;22584;-39
2022/10/29 12:23:15;;;;;;;7.72;2.35;;;20.30;99.90;;;;;;20844416;28;20130;-39
2022/10/29 12:33:48;;;;;;;11.88;1.75;;;21.20;99.90;;;;;;20812464;28;20041;-39
2022/10/29 12:43:50;;;;;;;3.55;1.85;;;22.20;99.90;;;;;;20803032;28;20799;-39
2022/10/29 12:53:55;;;;;;;2.53;1.27;;;22.80;99.90;;;;;;20824185;28;20060;-39
2022/10/29 13:03:57;;;;;;;4.35;1.27;;;23.10;99.90;;;;;;20820019;28;20050;-39
2022/10/29 13:14:00;;;;;;;5.88;1.63;;;22.60;99.90;;;;;;20808605;28;20052;-39
2022/10/29 13:24:03;;;;;;;3.95;2.05;;;22.70;99.90;;;;;;20795362;28;20651;-39
2022/10/29 13:34:05;;;;;;;7.60;1.98;;;22.60;99.90;;;;;;20793359;28;20053;-39
2022/10/29 13:44:06;;;;;;;5.07;2.92;;;22.30;99.90;;;;;;20812688;28;20033;-39
2022/10/29 13:54:16;;;;;;;4.13;2.10;;;22.00;99.90;;;;;;20811992;28;20073;-39
2022/10/29 14:04:29;;;;;;;2.83;1.27;;;21.70;99.90;;;;;;20806414;28;20037;-39
2022/10/29 14:14:41;;;;;;;4.95;2.25;;;21.60;99.90;;;;;;20814943;28;20163;-39
2022/10/29 14:24:42;;;;;;;3.22;1.52;;;21.30;99.90;;;;;;20797694;28;20968;-39
2022/10/29 14:34:44;;;;;;;10.70;2.50;;;21.30;99.90;;;;;;20830166;28;20053;-39
2022/10/29 14:44:52;;;;;;;3.58;1.80;;;21.20;99.90;;;;;;20812836;28;20442;-39
2022/10/29 14:54:56;;;;;;;6.25;2.38;;;21.10;99.90;;;;;;20826537;28;20065;-39
2022/10/29 15:04:58;;;;;;;4.25;1.85;;;21.00;99.90;;;;;;20825576;28;20041;-39
2022/10/29 15:15:19;;;;;;;1.88;1.30;;;20.90;99.90;;;;;;20839770;28;20052;-39
2022/10/29 15:25:35;;;;;;;4.00;1.60;;;20.80;99.90;;;;;;20827490;28;20045;-39
2022/10/29 15:35:52;;;;;;;3.95;1.77;;;20.60;99.90;;;;;;20811873;28;20093;-39
2022/10/29 15:45:56;;;;;;;3.08;1.60;;;20.50;99.90;;;;;;20830470;28;20049;-39
2022/10/29 15:55:57;;;;;;;6.63;2.85;;;20.30;99.90;;;;;;20823210;28;20102;-39
2022/10/29 16:06:00;;;;;;;4.95;2.75;;;20.20;99.90;;;;;;20808503;28;20046;-39
2022/10/29 16:16:01;;;;;;;7.20;1.90;;;20.20;99.90;;;;;;20810549;28;20084;-39
2022/10/29 16:26:03;;;;;;;5.15;2.20;;;20.00;99.90;;;;;;20811423;28;20044;-39
2022/10/29 16:36:04;;;;;;;5.88;2.22;;;20.00;99.90;;;;;;20816594;28;20069;-39
2022/10/29 16:46:05;;;;;;;29.77;3.58;;;19.90;99.90;;;;;;20833894;28;20037;-39
2022/10/29 16:56:07;;;;;;;3.35;1.73;;;19.80;99.90;;;;;;20830607;28;20041;-39
2022/10/29 17:06:09;;;;;;;5.88;2.70;;;19.80;99.90;;;;;;20819406;28;20050;-39
2022/10/29 17:16:15;;;;;;;7.47;2.13;;;19.90;99.90;;;;;;20818512;28;20045;-39
2022/10/29 17:26:16;;;;;;;3.88;1.77;;;19.80;99.90;;;;;;20799606;28;20585;-39
2022/10/29 17:36:17;;;;;;;5.35;2.10;;;19.70;99.90;;;;;;20813751;28;20053;-39
2022/10/29 17:46:19;;;;;;;5.18;2.10;;;19.50;99.90;;;;;;20806253;28;20709;-39
2022/10/29 17:56:20;;;;;;;4.22;2.05;;;19.40;99.90;;;;;;20810265;28;20060;-39
2022/10/29 18:06:21;;;;;;;5.97;2.90;;;19.40;99.90;;;;;;20824003;28;20550;-39
2022/10/29 18:16:26;;;;;;;8.30;2.70;;;19.50;99.90;;;;;;20839444;28;20428;-39
2022/10/29 18:26:36;;;;;;;4.45;2.15;;;19.60;99.90;;;;;;20825793;28;20176;-39
2022/10/29 18:36:39;;;;;;;4.72;2.15;;;19.40;99.90;;;;;;20824778;28;20091;-39
2022/10/29 18:46:40;;;;;;;7.82;2.45;;;19.40;99.90;;;;;;20818382;28;20107;-39
2022/10/29 18:56:41;;;;;;;5.18;2.35;;;19.30;99.90;;;;;;20817161;28;20408;-39
2022/10/29 19:06:42;;;;;;;11.13;2.42;;;19.20;99.90;;;;;;20827138;28;20045;-39
2022/10/29 19:16:43;;;;;;;5.00;2.33;;;19.00;99.90;;;;;;20829950;28;20044;-39
2022/10/29 19:26:44;;;;;;;4.20;1.70;;;18.90;99.90;;;;;;20822848;28;20135;-39
2022/10/29 19:36:45;;;;;;;3.25;1.48;;;18.80;99.90;;;;;;20821875;28;20239;-39
2022/10/29 19:46:46;;;;;;;4.85;1.90;;;18.70;99.90;;;;;;20813767;28;20040;-39
2022/10/29 19:56:47;;;;;;;3.17;1.60;;;18.70;99.90;;;;;;20803908;28;20037;-39
2022/10/29 20:06:48;;;;;;;5.32;2.70;;;18.60;99.90;;;;;;20797890;28;20096;-39
2022/10/29 20:16:49;;;;;;;3.58;1.65;;;18.70;99.90;;;;;;20792276;28;20064;-39
2022/10/29 20:26:50;;;;;;;5.25;1.33;;;18.70;99.90;;;;;;20800965;28;20049;-39
2022/10/29 20:36:51;;;;;;;4.32;2.13;;;18.50;99.90;;;;;;20807420;28;20063;-39
2022/10/29 20:46:52;;;;;;;6.18;1.67;;;18.40;99.90;;;;;;20806343;28;20054;-39
2022/10/29 20:56:54;;;;;;;4.65;1.23;;;18.30;99.90;;;;;;20790751;28;20267;-39
2022/10/29 21:06:54;;;;;;;2.97;1.73;;;18.20;99.90;;;;;;20801720;28;20079;-39
2022/10/29 21:16:55;;;;;;;7.53;2.15;;;18.10;99.90;;;;;;20784282;28;20052;-39
2022/10/29 21:26:56;;;;;;;4.53;1.27;;;18.00;99.90;;;;;;20784606;28;20057;-39
2022/10/29 21:36:57;;;;;;;4.63;2.15;;;17.90;99.90;;;;;;20791451;28;20076;-39
2022/10/29 21:46:58;;;;;;;4.63;2.55;;;17.80;99.90;;;;;;20793325;28;20041;-39
2022/10/29 21:56:59;;;;;;;3.78;2.10;;;17.60;99.90;;;;;;20800925;28;20060;-40
2022/10/29 22:07:02;;;;;;;5.32;2.42;;;17.40;99.90;;;;;;20794051;28;20064;-39
2022/10/29 22:17:03;;;;;;;4.07;1.80;;;17.30;99.90;;;;;;20794301;28;20135;-39
2022/10/29 22:27:04;;;;;;;4.72;2.28;;;17.20;99.90;;;;;;20795626;28;20587;-39
2022/10/29 22:37:05;;;;;;;3.65;1.50;;;17.00;99.90;;;;;;20781780;28;20214;-39
2022/10/29 22:47:06;;;;;;;10.98;3.45;;;16.90;99.90;;;;;;20801369;28;20052;-39
2022/10/29 22:57:07;;;;;;;6.18;2.70;;;16.80;99.90;;;;;;20818158;28;20073;-39
2022/10/29 23:07:08;;;;;;;4.15;2.00;;;16.60;99.90;;;;;;20798530;28;20629;-39
2022/10/29 23:17:09;;;;;;;5.05;2.15;;;16.50;99.90;;;;;;20813334;28;20942;-39
2022/10/29 23:27:10;;;;;;;5.18;2.05;;;16.50;99.90;;;;;;20810137;28;20580;-39
2022/10/29 23:37:11;;;;;;;5.45;2.53;;;16.40;99.90;;;;;;20808093;28;20063;-39
2022/10/29 23:47:12;;;;;;;6.05;2.70;;;16.30;99.90;;;;;;20830304;28;20048;-39
2022/10/29 23:57:13;;;;;;;8.18;2.13;;;16.20;99.90;;;;;;20813991;28;20060;-39
